Anton, CO

11:34 PM MDT on September 23, 2014 (GMT -0600)
Cope, Colorado | Change Station
CLOSE
Current Station
Personal Weather Station
Location: Cope, CO
Elevation: 4423 ft
Nearby Weather Stations

Elev 4423 ft 39.67 °N, 102.85 °W | Updated 11 minutes ago

Partly Cloudy
Partly Cloudy
60.1 °F
Feels Like 60.1 °F
N
2.7
Wind Variable Wind from SSW

Today
High -- | Low -- °F
--% Chance of Precip.
Yesterday
High -- | Low -- °F
Precip. -- in
6:41 AM 6:48 PM
Waning Crescent, 0% visible
Pressure 30.01 in
Visibility 10.0 miles
Clouds Scattered Clouds 10000 ft
Dew Point 55 °F
Humidity 84%
Rainfall 0.00 in
Snow Depth 0 in , 0 in , 0 in
UV 0 out of 12
Pollen 2.80 out of 12
Air Quality Not available.
Flu Activity Not available.
METAR KAKO 240453Z AUTO 27008KT 10SM SCT100 15/09 A3014 RMK AO2 SLP163 T01500094

More Conditions Fewer Conditions

Pressure 30.01 in
Visibility 10.0 miles
Clouds Scattered Clouds 10000 ft
Dew Point 55 °F
Humidity 84%
Rainfall 0.00 in
Snow Depth 0 in , 0 in , 0 in
UV 0 out of 12
Pollen 2.80 out of 12
Air Quality Not available.
Flu Activity Not available.
METAR KAKO 240453Z AUTO 27008KT 10SM SCT100 15/09 A3014 RMK AO2 SLP163 T01500094

More Conditions Fewer Conditions

10-Day Weather Forecast

Almanac

Astronomy

Sep. 23, 2014 Rise Set
Actual Time 6:41 AM MDT 6:48 PM MDT
Civil Twilight 6:14 AM MDT 7:15 PM MDT
Nautical Twilight 5:43 AM MDT 7:46 PM MDT
Astronomical Twilight 5:11 AM MDT 8:18 PM MDT
Moon 6:08 AM MDT (9/23) 6:28 PM MDT (9/23)
Length of Visible Light 13h 00m
Length of Day
12h 06m
Tomorrow will be 2m 35s shorter.
Waning Crescent, 0% of the Moon is Illuminated
Sep 24
Waning Crescent
Sep 24
New
Oct 1
First Quarter
Oct 8
Full
Oct 15
Last Quarter

Yesterday's Extremes

State Highs State Lows

Community

WunderPhotos

Upload Photos

1,755,891 photos uploaded!

WunderBlogs® & News

Nearby

Snow Depth

Station Depth Elevation
Beaver Divide 0 in 8280 ft
Tower 0 in 10500 ft
Idarado 0 in 9800 ft
Willow Park 0 in 10700 ft
University Camp 0 in 10300 ft

Earthquake Activity

City Distance Mag. Time & Date
No recent earthquake activity has been reported nearby.
Minimum magnitude displayed is 2.5.

Coastal Water Temperatures

Place Temperature
No Stations Reporting

Nearby Weather Stations